Friday, July 20, 2018, 12:37 PM EDT
Back to Local

KCBE, Cumberland, Greater Cumberland Regional Airport

Location: Wiley Ford, MD, United States Lat: 39.615
Local Time: 12:37 PM EDT (16:37 GMT) Lon: -78.761
Time Zone: US/Eastern Elev: 774 ft

Show me the last for .
Show Decoded

2018-07-20 12:16 METAR KCBE 201616Z AUTO 00000KT 10SM SCT034 SCT045 27/18 A3011 RMK AO1 =
2018-07-20 11:56 METAR KCBE 201556Z AUTO 21004KT 10SM CLR 27/18 A3012 RMK AO1 =
2018-07-20 11:36 METAR KCBE 201536Z AUTO 17004KT 10SM CLR 26/18 A3012 RMK AO1 =
2018-07-20 11:16 METAR KCBE 201516Z AUTO 19005KT 10SM CLR 26/18 A3013 RMK AO1 =
2018-07-20 10:56 METAR KCBE 201456Z AUTO 18005KT 10SM CLR 25/18 A3014 RMK AO1 =
2018-07-20 10:36 METAR KCBE 201436Z AUTO 12003KT 10SM CLR 24/17 A3014 RMK AO1 =
2018-07-20 10:16 METAR KCBE 201416Z AUTO 19004KT 10SM CLR 23/17 A3014 RMK AO1 =
2018-07-20 09:56 METAR KCBE 201356Z AUTO 00000KT 10SM CLR 23/17 A3015 RMK AO1 =
2018-07-20 09:36 METAR KCBE 201336Z AUTO 16003KT 10SM CLR 22/17 A3015 RMK AO1 =
2018-07-20 09:16 METAR KCBE 201316Z AUTO 00000KT 10SM CLR 21/17 A3015 RMK AO1 =
2018-07-20 08:56 METAR KCBE 201256Z AUTO 00000KT 10SM CLR 21/17 A3015 RMK AO1 =
2018-07-20 08:36 METAR KCBE 201236Z AUTO 00000KT 10SM CLR 20/17 A3015 RMK AO1 =
2018-07-20 08:16 METAR KCBE 201216Z AUTO 00000KT 10SM CLR 19/16 A3015 RMK AO1 =
2018-07-20 07:56 METAR KCBE 201156Z AUTO 00000KT 10SM CLR 18/16 A3015 RMK AO1 =
2018-07-20 07:36 METAR KCBE 201136Z AUTO 00000KT 10SM CLR 18/16 A3015 RMK AO1 =
2018-07-20 07:16 METAR KCBE 201116Z AUTO 00000KT 10SM CLR 17/16 A3015 RMK AO1 =
2018-07-20 06:56 METAR KCBE 201056Z AUTO 00000KT 10SM CLR 16/16 A3015 RMK AO1 =
2018-07-20 06:36 METAR KCBE 201036Z AUTO 00000KT 10SM CLR 16/16 A3015 RMK AO1 =
2018-07-20 06:16 METAR KCBE 201016Z AUTO 00000KT 7SM CLR 16/16 A3014 RMK AO1 =
2018-07-20 05:56 METAR KCBE 200956Z AUTO 00000KT 10SM CLR 17/17 A3014 RMK AO1 =
2018-07-20 05:36 METAR KCBE 200936Z AUTO 00000KT 10SM CLR 17/17 A3013 RMK AO1 =
2018-07-20 05:16 METAR KCBE 200916Z AUTO 00000KT 10SM SCT070 17/17 A3013 RMK AO1 =
2018-07-20 04:56 METAR KCBE 200856Z AUTO 00000KT 10SM SCT070 16/16 A3013 RMK AO1 =
2018-07-20 04:36 METAR KCBE 200836Z AUTO 00000KT 10SM CLR 17/17 A3013 RMK AO1 =
2018-07-20 04:16 METAR KCBE 200816Z AUTO 00000KT 10SM SCT070 17/16 A3014 RMK AO1 =
2018-07-20 03:56 METAR KCBE 200756Z AUTO 00000KT 10SM SCT070 17/16 A3014 RMK AO1 =
2018-07-20 03:36 METAR KCBE 200736Z AUTO 00000KT 10SM SCT070 17/17 A3013 RMK AO1 =
2018-07-20 03:16 METAR KCBE 200716Z AUTO 00000KT 10SM SCT070 17/16 A3012 RMK AO1 =
2018-07-20 02:56 METAR KCBE 200656Z AUTO 00000KT 10SM CLR 17/17 A3013 RMK AO1 =
2018-07-20 02:36 METAR KCBE 200636Z AUTO 00000KT 10SM SCT065 17/17 A3013 RMK AO1 =
2018-07-20 02:16 METAR KCBE 200616Z AUTO 00000KT 10SM CLR 17/17 A3012 RMK AO1 =
2018-07-20 01:56 METAR KCBE 200556Z AUTO 00000KT 10SM CLR 18/17 A3012 RMK AO1 =
2018-07-20 01:36 METAR KCBE 200536Z AUTO 00000KT 10SM CLR 19/17 A3013 RMK AO1 =
2018-07-20 01:16 METAR KCBE 200516Z AUTO 01004KT 10SM CLR 20/17 A3013 RMK AO1 =
2018-07-20 00:56 METAR KCBE 200456Z AUTO 35004KT 10SM CLR 20/17 A3013 RMK AO1 =
2018-07-20 00:36 METAR KCBE 200436Z AUTO 32006KT 10SM CLR 20/17 A3013 RMK AO1 =
2018-07-20 00:16 METAR KCBE 200416Z AUTO 35003KT 10SM CLR 20/17 A3013 RMK AO1 =
2018-07-19 23:56 METAR KCBE 200356Z AUTO 04003KT 10SM CLR 20/17 A3013 RMK AO1 =
2018-07-19 23:55 METAR KCBE 200355Z AUTO 04003KT 10SM CLR 20/17 A3013 RMK AO1 =
2018-07-19 23:36 METAR KCBE 200336Z AUTO 08003KT 10SM CLR 20/17 A3013 RMK AO1 =
2018-07-19 23:16 METAR KCBE 200316Z AUTO 00000KT 10SM CLR 21/17 A3012 RMK AO1 =
2018-07-19 22:56 METAR KCBE 200256Z AUTO 32003KT 10SM CLR 22/16 A3012 RMK AO1 =
2018-07-19 22:36 METAR KCBE 200236Z AUTO 31004KT 10SM CLR 22/16 A3012 RMK AO1 =
2018-07-19 22:16 METAR KCBE 200216Z AUTO 32003KT 10SM CLR 23/16 A3011 RMK AO1 =
2018-07-19 21:56 METAR KCBE 200156Z AUTO 32003KT 10SM CLR 23/16 A3011 RMK AO1 =
2018-07-19 21:36 METAR KCBE 200136Z AUTO 32003KT 10SM CLR 23/16 A3011 RMK AO1 =
2018-07-19 21:16 METAR KCBE 200116Z AUTO 00000KT 10SM CLR 25/15 A3010 RMK AO1 =
2018-07-19 20:56 METAR KCBE 200056Z AUTO 00000KT 10SM CLR 25/15 A3010 RMK AO1 =
2018-07-19 20:36 METAR KCBE 200036Z AUTO 00000KT 10SM CLR 26/15 A3009 RMK AO1 =
2018-07-19 20:16 METAR KCBE 200016Z AUTO 00000KT 10SM CLR 26/15 A3009 RMK AO1 =
2018-07-19 19:56 METAR KCBE 192356Z AUTO 00000KT 10SM CLR 27/15 A3009 RMK AO1 =
2018-07-19 19:36 METAR KCBE 192336Z AUTO 11003KT 10SM CLR 27/15 A3009 RMK AO1 =
2018-07-19 19:16 METAR KCBE 192316Z AUTO 11003KT 10SM CLR 27/14 A3009 RMK AO1 =
2018-07-19 18:56 METAR KCBE 192256Z AUTO 11003KT 10SM CLR 28/14 A3009 RMK AO1 =
2018-07-19 18:36 METAR KCBE 192236Z AUTO 11004KT 10SM CLR 28/13 A3010 RMK AO1 =
2018-07-19 18:16 METAR KCBE 192216Z AUTO 12005KT 10SM SCT060 28/14 A3009 RMK AO1 =
2018-07-19 17:56 METAR KCBE 192156Z AUTO 12006KT 10SM SCT060 29/13 A3010 RMK AO1 =
2018-07-19 17:36 METAR KCBE 192136Z AUTO 13007KT 10SM SCT060 29/13 A3010 RMK AO1 =
2018-07-19 17:16 METAR KCBE 192116Z AUTO 07006KT 10SM CLR 29/13 A3010 RMK AO1 =
2018-07-19 16:56 METAR KCBE 192056Z AUTO 08006KT 10SM CLR 29/13 A3011 RMK AO1 =
2018-07-19 16:36 METAR KCBE 192036Z AUTO 05003KT 10SM CLR 29/13 A3011 RMK AO1 =
2018-07-19 16:16 METAR KCBE 192016Z AUTO 12004KT 10SM CLR 30/13 A3010 RMK AO1 =
2018-07-19 15:56 METAR KCBE 191956Z AUTO 00000KT 10SM CLR 28/13 A3011 RMK AO1 =
2018-07-19 15:36 METAR KCBE 191936Z AUTO 13008KT 10SM SCT055 29/13 A3011 RMK AO1 =
2018-07-19 15:16 METAR KCBE 191916Z AUTO 14004KT 10SM CLR 28/13 A3012 RMK AO1 =
2018-07-19 14:56 METAR KCBE 191856Z AUTO 08004KT 10SM SCT050 28/13 A3012 RMK AO1 =
2018-07-19 14:36 METAR KCBE 191836Z AUTO 13005KT 10SM SCT050 27/14 A3013 RMK AO1 =
2018-07-19 14:16 METAR KCBE 191816Z AUTO 27003KT 10SM SCT050 27/14 A3013 RMK AO1 =
2018-07-19 13:56 METAR KCBE 191756Z AUTO 16006KT 10SM SCT047 28/14 A3014 RMK AO1 =
2018-07-19 13:36 METAR KCBE 191736Z AUTO 16004KT 10SM CLR 27/14 A3014 RMK AO1 =
2018-07-19 13:16 METAR KCBE 191716Z AUTO 12004KT 10SM CLR 26/15 A3015 RMK AO1 =
2018-07-19 12:56 METAR KCBE 191656Z AUTO 19005KT 10SM CLR 26/15 A3016 RMK AO1 =

Support USWX by starting your Amazon purchase here.